sensor_id;sensor_type;location;lat;lon;timestamp;P1;durP1;ratioP1;P2;durP2;ratioP2
4389;SDS011;2209;48.982;8.406;2022-11-14T00:00:00;13.57;;;11.60;;
4389;SDS011;2209;48.982;8.406;2022-11-14T00:02:22;17.50;;;13.13;;
4389;SDS011;2209;48.982;8.406;2022-11-14T00:04:44;16.00;;;13.33;;
4389;SDS011;2209;48.982;8.406;2022-11-14T00:07:06;16.80;;;12.70;;
4389;SDS011;2209;48.982;8.406;2022-11-14T00:09:30;14.13;;;11.13;;
4389;SDS011;2209;48.982;8.406;2022-11-14T00:11:52;15.37;;;11.10;;
4389;SDS011;2209;48.982;8.406;2022-11-14T00:14:14;14.57;;;11.70;;
4389;SDS011;2209;48.982;8.406;2022-11-14T00:16:36;16.63;;;11.70;;
4389;SDS011;2209;48.982;8.406;2022-11-14T00:18:58;14.80;;;11.63;;
4389;SDS011;2209;48.982;8.406;2022-11-14T00:21:21;14.93;;;11.33;;
4389;SDS011;2209;48.982;8.406;2022-11-14T00:23:43;11.33;;;9.83;;
4389;SDS011;2209;48.982;8.406;2022-11-14T00:26:06;13.73;;;11.07;;
4389;SDS011;2209;48.982;8.406;2022-11-14T00:28:28;12.37;;;10.13;;
4389;SDS011;2209;48.982;8.406;2022-11-14T00:30:50;15.07;;;11.10;;
4389;SDS011;2209;48.982;8.406;2022-11-14T00:33:12;15.60;;;11.10;;
4389;SDS011;2209;48.982;8.406;2022-11-14T00:35:35;14.60;;;11.03;;
4389;SDS011;2209;48.982;8.406;2022-11-14T00:37:57;11.53;;;10.10;;
4389;SDS011;2209;48.982;8.406;2022-11-14T00:40:19;14.77;;;10.90;;
4389;SDS011;2209;48.982;8.406;2022-11-14T00:42:42;11.73;;;10.27;;
4389;SDS011;2209;48.982;8.406;2022-11-14T00:45:05;16.30;;;11.10;;
4389;SDS011;2209;48.982;8.406;2022-11-14T00:47:27;13.23;;;11.17;;
4389;SDS011;2209;48.982;8.406;2022-11-14T00:49:49;14.40;;;11.20;;
4389;SDS011;2209;48.982;8.406;2022-11-14T00:52:11;16.10;;;11.00;;
4389;SDS011;2209;48.982;8.406;2022-11-14T00:54:33;15.70;;;11.17;;
4389;SDS011;2209;48.982;8.406;2022-11-14T00:56:55;14.03;;;10.60;;
4389;SDS011;2209;48.982;8.406;2022-11-14T00:59:19;14.77;;;11.10;;
4389;SDS011;2209;48.982;8.406;2022-11-14T01:01:41;14.10;;;10.73;;
4389;SDS011;2209;48.982;8.406;2022-11-14T01:04:03;14.63;;;11.27;;
4389;SDS011;2209;48.982;8.406;2022-11-14T01:06:25;12.27;;;10.20;;
4389;SDS011;2209;48.982;8.406;2022-11-14T01:08:48;12.20;;;9.80;;
4389;SDS011;2209;48.982;8.406;2022-11-14T01:11:11;11.77;;;9.33;;
4389;SDS011;2209;48.982;8.406;2022-11-14T01:13:36;10.50;;;9.20;;
4389;SDS011;2209;48.982;8.406;2022-11-14T01:16:00;14.70;;;11.00;;
4389;SDS011;2209;48.982;8.406;2022-11-14T01:18:22;13.13;;;9.90;;
4389;SDS011;2209;48.982;8.406;2022-11-14T01:20:45;13.03;;;10.83;;
4389;SDS011;2209;48.982;8.406;2022-11-14T01:23:08;13.07;;;9.97;;
4389;SDS011;2209;48.982;8.406;2022-11-14T01:25:31;14.03;;;10.90;;
4389;SDS011;2209;48.982;8.406;2022-11-14T01:27:53;11.93;;;10.60;;
4389;SDS011;2209;48.982;8.406;2022-11-14T01:30:15;12.80;;;10.23;;
4389;SDS011;2209;48.982;8.406;2022-11-14T01:32:39;10.77;;;9.63;;
4389;SDS011;2209;48.982;8.406;2022-11-14T01:35:01;15.67;;;11.17;;
4389;SDS011;2209;48.982;8.406;2022-11-14T01:37:23;14.33;;;11.13;;
4389;SDS011;2209;48.982;8.406;2022-11-14T01:39:45;13.57;;;11.50;;
4389;SDS011;2209;48.982;8.406;2022-11-14T01:42:07;13.53;;;10.50;;
4389;SDS011;2209;48.982;8.406;2022-11-14T01:44:37;12.77;;;10.43;;
4389;SDS011;2209;48.982;8.406;2022-11-14T01:47:05;14.80;;;11.20;;
4389;SDS011;2209;48.982;8.406;2022-11-14T01:49:30;13.30;;;11.23;;
4389;SDS011;2209;48.982;8.406;2022-11-14T01:51:58;13.60;;;10.47;;
4389;SDS011;2209;48.982;8.406;2022-11-14T01:54:24;14.50;;;11.27;;
4389;SDS011;2209;48.982;8.406;2022-11-14T01:56:49;14.43;;;11.10;;
4389;SDS011;2209;48.982;8.406;2022-11-14T01:59:16;12.77;;;9.93;;
4389;SDS011;2209;48.982;8.406;2022-11-14T02:01:43;13.27;;;10.03;;
4389;SDS011;2209;48.982;8.406;2022-11-14T02:04:07;15.40;;;11.10;;
4389;SDS011;2209;48.982;8.406;2022-11-14T02:06:30;16.57;;;10.90;;
4389;SDS011;2209;48.982;8.406;2022-11-14T02:08:53;15.17;;;11.23;;
4389;SDS011;2209;48.982;8.406;2022-11-14T02:11:18;15.40;;;12.03;;
4389;SDS011;2209;48.982;8.406;2022-11-14T02:13:40;17.57;;;12.03;;
4389;SDS011;2209;48.982;8.406;2022-11-14T02:16:02;14.90;;;10.77;;
4389;SDS011;2209;48.982;8.406;2022-11-14T02:18:25;14.07;;;11.30;;
4389;SDS011;2209;48.982;8.406;2022-11-14T02:20:48;16.10;;;11.90;;
4389;SDS011;2209;48.982;8.406;2022-11-14T02:23:10;16.73;;;11.10;;
4389;SDS011;2209;48.982;8.406;2022-11-14T02:25:33;15.33;;;12.10;;
4389;SDS011;2209;48.982;8.406;2022-11-14T02:27:55;16.10;;;12.00;;
4389;SDS011;2209;48.982;8.406;2022-11-14T02:30:19;14.10;;;11.00;;
4389;SDS011;2209;48.982;8.406;2022-11-14T02:32:42;16.10;;;11.47;;
4389;SDS011;2209;48.982;8.406;2022-11-14T02:35:05;15.40;;;11.47;;
4389;SDS011;2209;48.982;8.406;2022-11-14T02:37:28;16.37;;;11.83;;
4389;SDS011;2209;48.982;8.406;2022-11-14T02:39:52;13.50;;;11.10;;
4389;SDS011;2209;48.982;8.406;2022-11-14T02:42:14;13.77;;;12.13;;
4389;SDS011;2209;48.982;8.406;2022-11-14T02:44:36;14.67;;;11.10;;
4389;SDS011;2209;48.982;8.406;2022-11-14T02:46:58;17.50;;;12.00;;
4389;SDS011;2209;48.982;8.406;2022-11-14T02:49:20;14.87;;;11.27;;
4389;SDS011;2209;48.982;8.406;2022-11-14T02:51:42;15.90;;;11.10;;
4389;SDS011;2209;48.982;8.406;2022-11-14T02:54:06;15.40;;;11.33;;
4389;SDS011;2209;48.982;8.406;2022-11-14T02:56:28;15.13;;;11.73;;
4389;SDS011;2209;48.982;8.406;2022-11-14T02:58:50;13.67;;;10.70;;
4389;SDS011;2209;48.982;8.406;2022-11-14T03:01:12;14.50;;;11.83;;
4389;SDS011;2209;48.982;8.406;2022-11-14T03:03:34;14.57;;;12.27;;
4389;SDS011;2209;48.982;8.406;2022-11-14T03:05:57;14.53;;;11.30;;
4389;SDS011;2209;48.982;8.406;2022-11-14T03:08:20;15.70;;;11.70;;
4389;SDS011;2209;48.982;8.406;2022-11-14T03:10:43;14.57;;;11.77;;
4389;SDS011;2209;48.982;8.406;2022-11-14T03:13:05;14.80;;;10.83;;
4389;SDS011;2209;48.982;8.406;2022-11-14T03:15:27;14.17;;;11.37;;
4389;SDS011;2209;48.982;8.406;2022-11-14T03:17:49;14.53;;;11.10;;
4389;SDS011;2209;48.982;8.406;2022-11-14T03:20:12;16.60;;;10.90;;
4389;SDS011;2209;48.982;8.406;2022-11-14T03:22:35;14.90;;;11.10;;
4389;SDS011;2209;48.982;8.406;2022-11-14T03:24:57;15.90;;;10.83;;
4389;SDS011;2209;48.982;8.406;2022-11-14T03:30:38;18.40;;;10.80;;
4389;SDS011;2209;48.982;8.406;2022-11-14T03:33:01;12.87;;;10.07;;
4389;SDS011;2209;48.982;8.406;2022-11-14T03:35:23;11.60;;;10.07;;
4389;SDS011;2209;48.982;8.406;2022-11-14T03:37:46;13.10;;;10.70;;
4389;SDS011;2209;48.982;8.406;2022-11-14T03:40:08;15.07;;;10.77;;
4389;SDS011;2209;48.982;8.406;2022-11-14T03:42:32;13.30;;;10.60;;
4389;SDS011;2209;48.982;8.406;2022-11-14T03:44:55;12.77;;;10.33;;
4389;SDS011;2209;48.982;8.406;2022-11-14T03:47:18;13.30;;;10.50;;
4389;SDS011;2209;48.982;8.406;2022-11-14T03:49:41;12.43;;;9.90;;
4389;SDS011;2209;48.982;8.406;2022-11-14T03:52:04;13.10;;;9.63;;
4389;SDS011;2209;48.982;8.406;2022-11-14T03:54:26;13.13;;;9.13;;
4389;SDS011;2209;48.982;8.406;2022-11-14T03:56:49;13.60;;;10.20;;
4389;SDS011;2209;48.982;8.406;2022-11-14T03:59:12;12.03;;;10.00;;
4389;SDS011;2209;48.982;8.406;2022-11-14T04:01:34;10.63;;;9.50;;
4389;SDS011;2209;48.982;8.406;2022-11-14T04:03:57;12.10;;;9.50;;
4389;SDS011;2209;48.982;8.406;2022-11-14T04:06:19;17.50;;;9.63;;
4389;SDS011;2209;48.982;8.406;2022-11-14T04:08:41;13.30;;;9.83;;
4389;SDS011;2209;48.982;8.406;2022-11-14T04:11:04;12.20;;;9.57;;
4389;SDS011;2209;48.982;8.406;2022-11-14T04:13:26;12.93;;;10.93;;
4389;SDS011;2209;48.982;8.406;2022-11-14T04:15:52;13.20;;;10.87;;
4389;SDS011;2209;48.982;8.406;2022-11-14T04:18:16;16.87;;;11.10;;
4389;SDS011;2209;48.982;8.406;2022-11-14T04:20:40;15.30;;;10.83;;
4389;SDS011;2209;48.982;8.406;2022-11-14T04:23:02;11.90;;;10.80;;
4389;SDS011;2209;48.982;8.406;2022-11-14T04:25:24;14.27;;;10.37;;
4389;SDS011;2209;48.982;8.406;2022-11-14T04:27:46;13.80;;;11.03;;
4389;SDS011;2209;48.982;8.406;2022-11-14T04:30:08;13.60;;;11.07;;
4389;SDS011;2209;48.982;8.406;2022-11-14T04:32:31;14.70;;;11.43;;
4389;SDS011;2209;48.982;8.406;2022-11-14T04:34:53;15.93;;;12.40;;
4389;SDS011;2209;48.982;8.406;2022-11-14T04:37:17;14.57;;;12.70;;
4389;SDS011;2209;48.982;8.406;2022-11-14T04:39:39;16.73;;;12.63;;
4389;SDS011;2209;48.982;8.406;2022-11-14T04:42:01;12.40;;;10.93;;
4389;SDS011;2209;48.982;8.406;2022-11-14T04:44:23;12.03;;;10.67;;
4389;SDS011;2209;48.982;8.406;2022-11-14T04:46:45;15.70;;;12.60;;
4389;SDS011;2209;48.982;8.406;2022-11-14T04:49:07;14.63;;;11.97;;
4389;SDS011;2209;48.982;8.406;2022-11-14T04:51:29;12.93;;;10.70;;
4389;SDS011;2209;48.982;8.406;2022-11-14T04:53:52;13.90;;;11.60;;
4389;SDS011;2209;48.982;8.406;2022-11-14T04:56:14;12.73;;;11.33;;
4389;SDS011;2209;48.982;8.406;2022-11-14T04:58:36;14.83;;;12.10;;
4389;SDS011;2209;48.982;8.406;2022-11-14T05:00:59;13.73;;;11.43;;
4389;SDS011;2209;48.982;8.406;2022-11-14T05:03:27;12.77;;;11.40;;
4389;SDS011;2209;48.982;8.406;2022-11-14T05:05:49;12.93;;;11.23;;
4389;SDS011;2209;48.982;8.406;2022-11-14T05:08:12;14.77;;;11.80;;
4389;SDS011;2209;48.982;8.406;2022-11-14T05:10:35;14.53;;;12.50;;
4389;SDS011;2209;48.982;8.406;2022-11-14T05:12:57;13.33;;;11.40;;
4389;SDS011;2209;48.982;8.406;2022-11-14T05:15:19;15.97;;;11.97;;
4389;SDS011;2209;48.982;8.406;2022-11-14T05:17:41;13.03;;;11.03;;
4389;SDS011;2209;48.982;8.406;2022-11-14T05:20:04;12.00;;;10.80;;
4389;SDS011;2209;48.982;8.406;2022-11-14T05:22:26;13.23;;;10.23;;
4389;SDS011;2209;48.982;8.406;2022-11-14T05:24:48;12.00;;;10.50;;
4389;SDS011;2209;48.982;8.406;2022-11-14T05:27:12;11.67;;;9.93;;
4389;SDS011;2209;48.982;8.406;2022-11-14T05:29:34;12.80;;;11.50;;
4389;SDS011;2209;48.982;8.406;2022-11-14T05:31:56;11.73;;;10.30;;
4389;SDS011;2209;48.982;8.406;2022-11-14T05:34:20;11.73;;;10.30;;
4389;SDS011;2209;48.982;8.406;2022-11-14T05:36:42;12.00;;;10.80;;
4389;SDS011;2209;48.982;8.406;2022-11-14T05:39:04;11.70;;;9.80;;
4389;SDS011;2209;48.982;8.406;2022-11-14T05:41:26;12.40;;;10.23;;
4389;SDS011;2209;48.982;8.406;2022-11-14T05:43:49;10.10;;;9.10;;
4389;SDS011;2209;48.982;8.406;2022-11-14T05:46:12;11.60;;;10.27;;
4389;SDS011;2209;48.982;8.406;2022-11-14T05:48:36;10.97;;;9.87;;
4389;SDS011;2209;48.982;8.406;2022-11-14T05:51:00;13.53;;;10.20;;
4389;SDS011;2209;48.982;8.406;2022-11-14T05:53:24;11.50;;;10.10;;
4389;SDS011;2209;48.982;8.406;2022-11-14T05:55:47;11.70;;;10.27;;
4389;SDS011;2209;48.982;8.406;2022-11-14T05:58:09;10.20;;;9.30;;
4389;SDS011;2209;48.982;8.406;2022-11-14T06:00:32;9.57;;;8.57;;
4389;SDS011;2209;48.982;8.406;2022-11-14T06:02:54;10.47;;;9.10;;
4389;SDS011;2209;48.982;8.406;2022-11-14T06:05:17;10.77;;;9.40;;
4389;SDS011;2209;48.982;8.406;2022-11-14T06:07:40;9.73;;;8.70;;
4389;SDS011;2209;48.982;8.406;2022-11-14T06:10:02;9.97;;;8.97;;
4389;SDS011;2209;48.982;8.406;2022-11-14T06:12:24;10.40;;;8.27;;
4389;SDS011;2209;48.982;8.406;2022-11-14T06:14:46;9.03;;;8.20;;
4389;SDS011;2209;48.982;8.406;2022-11-14T06:17:10;10.07;;;8.10;;
4389;SDS011;2209;48.982;8.406;2022-11-14T06:19:32;9.70;;;8.70;;
4389;SDS011;2209;48.982;8.406;2022-11-14T06:21:54;10.73;;;8.53;;
4389;SDS011;2209;48.982;8.406;2022-11-14T06:24:16;8.53;;;7.73;;
4389;SDS011;2209;48.982;8.406;2022-11-14T06:26:38;8.70;;;7.90;;
4389;SDS011;2209;48.982;8.406;2022-11-14T06:29:00;8.60;;;7.80;;
4389;SDS011;2209;48.982;8.406;2022-11-14T06:31:23;9.43;;;8.57;;
4389;SDS011;2209;48.982;8.406;2022-11-14T06:33:47;8.00;;;7.27;;
4389;SDS011;2209;48.982;8.406;2022-11-14T06:36:09;10.10;;;8.03;;
4389;SDS011;2209;48.982;8.406;2022-11-14T06:38:32;8.27;;;7.47;;
4389;SDS011;2209;48.982;8.406;2022-11-14T06:41:02;8.27;;;7.20;;
4389;SDS011;2209;48.982;8.406;2022-11-14T06:43:25;8.83;;;7.97;;
4389;SDS011;2209;48.982;8.406;2022-11-14T06:45:47;8.80;;;7.83;;
4389;SDS011;2209;48.982;8.406;2022-11-14T06:48:09;8.30;;;7.43;;
4389;SDS011;2209;48.982;8.406;2022-11-14T06:50:33;8.67;;;7.80;;
4389;SDS011;2209;48.982;8.406;2022-11-14T06:52:55;8.73;;;7.83;;
4389;SDS011;2209;48.982;8.406;2022-11-14T06:55:18;8.77;;;7.97;;
4389;SDS011;2209;48.982;8.406;2022-11-14T06:57:40;9.70;;;8.70;;
4389;SDS011;2209;48.982;8.406;2022-11-14T07:00:02;8.60;;;7.70;;
4389;SDS011;2209;48.982;8.406;2022-11-14T07:02:25;9.83;;;8.40;;
4389;SDS011;2209;48.982;8.406;2022-11-14T07:04:47;9.40;;;8.40;;
4389;SDS011;2209;48.982;8.406;2022-11-14T07:07:10;9.33;;;8.07;;
4389;SDS011;2209;48.982;8.406;2022-11-14T07:09:32;9.43;;;8.30;;
4389;SDS011;2209;48.982;8.406;2022-11-14T07:11:55;13.83;;;8.30;;
4389;SDS011;2209;48.982;8.406;2022-11-14T07:14:17;9.57;;;8.53;;
4389;SDS011;2209;48.982;8.406;2022-11-14T07:16:39;9.03;;;8.23;;
4389;SDS011;2209;48.982;8.406;2022-11-14T07:19:01;9.63;;;8.57;;
4389;SDS011;2209;48.982;8.406;2022-11-14T07:21:26;10.50;;;8.30;;
4389;SDS011;2209;48.982;8.406;2022-11-14T07:23:50;8.23;;;7.43;;
4389;SDS011;2209;48.982;8.406;2022-11-14T07:26:13;9.70;;;8.20;;
4389;SDS011;2209;48.982;8.406;2022-11-14T07:28:36;8.87;;;7.97;;
4389;SDS011;2209;48.982;8.406;2022-11-14T07:31:01;8.67;;;7.77;;
4389;SDS011;2209;48.982;8.406;2022-11-14T07:33:23;8.73;;;7.83;;
4389;SDS011;2209;48.982;8.406;2022-11-14T07:35:45;8.93;;;7.60;;
4389;SDS011;2209;48.982;8.406;2022-11-14T07:38:07;9.87;;;8.07;;
4389;SDS011;2209;48.982;8.406;2022-11-14T07:40:31;9.63;;;8.17;;
4389;SDS011;2209;48.982;8.406;2022-11-14T07:42:55;11.10;;;8.73;;
4389;SDS011;2209;48.982;8.406;2022-11-14T07:45:18;8.70;;;7.90;;
4389;SDS011;2209;48.982;8.406;2022-11-14T07:50:59;12.87;;;8.17;;
4389;SDS011;2209;48.982;8.406;2022-11-14T07:53:22;9.80;;;8.47;;
4389;SDS011;2209;48.982;8.406;2022-11-14T07:55:47;8.90;;;7.97;;
4389;SDS011;2209;48.982;8.406;2022-11-14T07:58:09;9.93;;;8.93;;
4389;SDS011;2209;48.982;8.406;2022-11-14T08:00:33;8.73;;;7.93;;
4389;SDS011;2209;48.982;8.406;2022-11-14T08:02:56;9.73;;;8.63;;
4389;SDS011;2209;48.982;8.406;2022-11-14T08:05:19;9.47;;;8.57;;
4389;SDS011;2209;48.982;8.406;2022-11-14T08:07:42;10.60;;;7.80;;
4389;SDS011;2209;48.982;8.406;2022-11-14T08:10:06;11.73;;;9.20;;
4389;SDS011;2209;48.982;8.406;2022-11-14T08:12:32;11.53;;;8.23;;
4389;SDS011;2209;48.982;8.406;2022-11-14T08:14:55;9.93;;;8.07;;
4389;SDS011;2209;48.982;8.406;2022-11-14T08:17:19;9.37;;;8.20;;
4389;SDS011;2209;48.982;8.406;2022-11-14T08:19:41;8.37;;;7.43;;
4389;SDS011;2209;48.982;8.406;2022-11-14T08:22:05;8.37;;;7.67;;
4389;SDS011;2209;48.982;8.406;2022-11-14T08:24:27;9.00;;;8.10;;
4389;SDS011;2209;48.982;8.406;2022-11-14T08:26:49;8.27;;;7.47;;
4389;SDS011;2209;48.982;8.406;2022-11-14T08:29:13;8.07;;;7.37;;
4389;SDS011;2209;48.982;8.406;2022-11-14T08:31:35;9.60;;;7.50;;
4389;SDS011;2209;48.982;8.406;2022-11-14T08:33:57;10.10;;;7.93;;
4389;SDS011;2209;48.982;8.406;2022-11-14T08:36:19;8.80;;;7.90;;
4389;SDS011;2209;48.982;8.406;2022-11-14T08:38:41;8.67;;;7.33;;
4389;SDS011;2209;48.982;8.406;2022-11-14T08:41:03;9.33;;;8.33;;
4389;SDS011;2209;48.982;8.406;2022-11-14T08:43:26;9.87;;;7.23;;
4389;SDS011;2209;48.982;8.406;2022-11-14T08:45:50;10.13;;;8.40;;
4389;SDS011;2209;48.982;8.406;2022-11-14T08:48:12;9.73;;;8.73;;
4389;SDS011;2209;48.982;8.406;2022-11-14T08:50:34;10.20;;;8.67;;
4389;SDS011;2209;48.982;8.406;2022-11-14T08:52:57;9.97;;;9.00;;
4389;SDS011;2209;48.982;8.406;2022-11-14T08:55:20;10.87;;;8.20;;
4389;SDS011;2209;48.982;8.406;2022-11-14T08:57:42;9.57;;;8.57;;
4389;SDS011;2209;48.982;8.406;2022-11-14T09:00:04;8.87;;;8.00;;
4389;SDS011;2209;48.982;8.406;2022-11-14T09:02:28;8.90;;;8.00;;
4389;SDS011;2209;48.982;8.406;2022-11-14T09:04:51;10.47;;;9.23;;
4389;SDS011;2209;48.982;8.406;2022-11-14T09:07:13;9.40;;;8.03;;
4389;SDS011;2209;48.982;8.406;2022-11-14T09:09:36;9.17;;;8.27;;
4389;SDS011;2209;48.982;8.406;2022-11-14T09:11:58;9.73;;;8.73;;
4389;SDS011;2209;48.982;8.406;2022-11-14T09:14:21;10.13;;;8.73;;
4389;SDS011;2209;48.982;8.406;2022-11-14T09:16:43;10.27;;;8.13;;
4389;SDS011;2209;48.982;8.406;2022-11-14T09:19:08;9.07;;;7.80;;
4389;SDS011;2209;48.982;8.406;2022-11-14T09:21:31;8.23;;;7.43;;
4389;SDS011;2209;48.982;8.406;2022-11-14T09:23:53;9.33;;;8.43;;
4389;SDS011;2209;48.982;8.406;2022-11-14T09:26:15;7.97;;;7.20;;
4389;SDS011;2209;48.982;8.406;2022-11-14T09:28:38;8.60;;;7.60;;
4389;SDS011;2209;48.982;8.406;2022-11-14T09:31:01;14.03;;;8.50;;
4389;SDS011;2209;48.982;8.406;2022-11-14T09:33:23;9.80;;;7.40;;
4389;SDS011;2209;48.982;8.406;2022-11-14T09:35:46;12.77;;;7.80;;
4389;SDS011;2209;48.982;8.406;2022-11-14T09:38:09;9.50;;;8.00;;
4389;SDS011;2209;48.982;8.406;2022-11-14T09:40:32;11.63;;;8.23;;
4389;SDS011;2209;48.982;8.406;2022-11-14T09:43:11;8.70;;;7.93;;
4389;SDS011;2209;48.982;8.406;2022-11-14T09:45:46;8.33;;;7.53;;
4389;SDS011;2209;48.982;8.406;2022-11-14T09:48:11;10.90;;;8.33;;
4389;SDS011;2209;48.982;8.406;2022-11-14T09:50:37;8.53;;;7.70;;
4389;SDS011;2209;48.982;8.406;2022-11-14T09:53:08;8.70;;;7.80;;
4389;SDS011;2209;48.982;8.406;2022-11-14T09:55:34;7.40;;;6.73;;
4389;SDS011;2209;48.982;8.406;2022-11-14T09:57:56;9.83;;;7.13;;
4389;SDS011;2209;48.982;8.406;2022-11-14T10:00:19;8.33;;;7.00;;
4389;SDS011;2209;48.982;8.406;2022-11-14T10:02:46;13.10;;;7.70;;
4389;SDS011;2209;48.982;8.406;2022-11-14T10:05:21;8.10;;;7.30;;
4389;SDS011;2209;48.982;8.406;2022-11-14T10:07:56;9.63;;;7.87;;
4389;SDS011;2209;48.982;8.406;2022-11-14T10:10:31;8.40;;;7.60;;
4389;SDS011;2209;48.982;8.406;2022-11-14T10:13:05;9.77;;;6.87;;
4389;SDS011;2209;48.982;8.406;2022-11-14T10:15:39;8.20;;;7.43;;
4389;SDS011;2209;48.982;8.406;2022-11-14T10:18:15;7.40;;;6.70;;
4389;SDS011;2209;48.982;8.406;2022-11-14T10:20:56;8.63;;;6.97;;
4389;SDS011;2209;48.982;8.406;2022-11-14T10:23:26;8.60;;;7.40;;
4389;SDS011;2209;48.982;8.406;2022-11-14T10:25:55;11.50;;;7.70;;
4389;SDS011;2209;48.982;8.406;2022-11-14T10:28:32;9.90;;;7.23;;
4389;SDS011;2209;48.982;8.406;2022-11-14T10:31:03;13.90;;;7.80;;
4389;SDS011;2209;48.982;8.406;2022-11-14T10:33:32;10.43;;;7.50;;
4389;SDS011;2209;48.982;8.406;2022-11-14T10:36:04;10.67;;;7.60;;
4389;SDS011;2209;48.982;8.406;2022-11-14T10:38:34;11.03;;;7.53;;
4389;SDS011;2209;48.982;8.406;2022-11-14T10:41:03;11.17;;;7.73;;
4389;SDS011;2209;48.982;8.406;2022-11-14T10:43:27;9.53;;;6.87;;
4389;SDS011;2209;48.982;8.406;2022-11-14T10:45:56;8.13;;;7.33;;
4389;SDS011;2209;48.982;8.406;2022-11-14T10:48:25;8.17;;;7.37;;
4389;SDS011;2209;48.982;8.406;2022-11-14T10:50:51;10.23;;;8.40;;
4389;SDS011;2209;48.982;8.406;2022-11-14T10:53:20;8.50;;;7.70;;
4389;SDS011;2209;48.982;8.406;2022-11-14T10:55:48;9.60;;;8.60;;
4389;SDS011;2209;48.982;8.406;2022-11-14T10:58:12;8.77;;;7.80;;
4389;SDS011;2209;48.982;8.406;2022-11-14T11:00:35;10.00;;;8.97;;
4389;SDS011;2209;48.982;8.406;2022-11-14T11:02:57;11.67;;;8.33;;
4389;SDS011;2209;48.982;8.406;2022-11-14T11:05:20;9.70;;;8.50;;
4389;SDS011;2209;48.982;8.406;2022-11-14T11:07:45;8.73;;;7.83;;
4389;SDS011;2209;48.982;8.406;2022-11-14T11:10:26;13.83;;;8.50;;
4389;SDS011;2209;48.982;8.406;2022-11-14T11:13:05;10.20;;;8.67;;
4389;SDS011;2209;48.982;8.406;2022-11-14T11:15:39;11.00;;;8.40;;
4389;SDS011;2209;48.982;8.406;2022-11-14T11:18:03;10.50;;;8.67;;
4389;SDS011;2209;48.982;8.406;2022-11-14T11:20:30;11.80;;;8.43;;
4389;SDS011;2209;48.982;8.406;2022-11-14T11:23:00;9.20;;;8.30;;
4389;SDS011;2209;48.982;8.406;2022-11-14T11:25:25;10.53;;;8.17;;
4389;SDS011;2209;48.982;8.406;2022-11-14T11:27:56;9.03;;;7.87;;
4389;SDS011;2209;48.982;8.406;2022-11-14T11:30:25;9.47;;;8.50;;
4389;SDS011;2209;48.982;8.406;2022-11-14T11:32:48;11.47;;;8.73;;
4389;SDS011;2209;48.982;8.406;2022-11-14T11:35:11;9.03;;;8.13;;
4389;SDS011;2209;48.982;8.406;2022-11-14T11:37:34;9.00;;;7.80;;
4389;SDS011;2209;48.982;8.406;2022-11-14T11:40:01;12.03;;;8.10;;
4389;SDS011;2209;48.982;8.406;2022-11-14T11:42:27;10.73;;;9.00;;
4389;SDS011;2209;48.982;8.406;2022-11-14T11:44:54;11.53;;;8.87;;
4389;SDS011;2209;48.982;8.406;2022-11-14T11:47:20;13.50;;;8.93;;
4389;SDS011;2209;48.982;8.406;2022-11-14T11:49:45;12.20;;;8.67;;
4389;SDS011;2209;48.982;8.406;2022-11-14T11:52:10;13.30;;;10.10;;
4389;SDS011;2209;48.982;8.406;2022-11-14T11:54:46;8.80;;;7.90;;
4389;SDS011;2209;48.982;8.406;2022-11-14T11:57:14;14.30;;;9.50;;
4389;SDS011;2209;48.982;8.406;2022-11-14T11:59:40;10.30;;;8.93;;
4389;SDS011;2209;48.982;8.406;2022-11-14T12:02:11;11.57;;;9.47;;
4389;SDS011;2209;48.982;8.406;2022-11-14T12:04:41;9.80;;;8.33;;
4389;SDS011;2209;48.982;8.406;2022-11-14T12:07:07;17.43;;;9.20;;
4389;SDS011;2209;48.982;8.406;2022-11-14T12:09:35;18.63;;;9.33;;
4389;SDS011;2209;48.982;8.406;2022-11-14T12:12:01;9.50;;;8.33;;
4389;SDS011;2209;48.982;8.406;2022-11-14T12:14:40;12.67;;;9.37;;
4389;SDS011;2209;48.982;8.406;2022-11-14T12:23:12;12.70;;;9.60;;
4389;SDS011;2209;48.982;8.406;2022-11-14T12:26:04;13.10;;;9.10;;
4389;SDS011;2209;48.982;8.406;2022-11-14T12:28:47;10.93;;;9.33;;
4389;SDS011;2209;48.982;8.406;2022-11-14T12:31:18;11.30;;;9.27;;
4389;SDS011;2209;48.982;8.406;2022-11-14T12:33:42;11.63;;;9.40;;
4389;SDS011;2209;48.982;8.406;2022-11-14T12:36:09;10.67;;;9.57;;
4389;SDS011;2209;48.982;8.406;2022-11-14T12:38:39;12.33;;;8.70;;
4389;SDS011;2209;48.982;8.406;2022-11-14T12:41:03;12.47;;;10.33;;
4389;SDS011;2209;48.982;8.406;2022-11-14T12:43:29;10.07;;;9.00;;
4389;SDS011;2209;48.982;8.406;2022-11-14T12:46:00;12.63;;;9.70;;
4389;SDS011;2209;48.982;8.406;2022-11-14T12:48:29;13.03;;;8.97;;
4389;SDS011;2209;48.982;8.406;2022-11-14T12:50:52;10.47;;;8.70;;
4389;SDS011;2209;48.982;8.406;2022-11-14T12:56:18;9.70;;;8.77;;
4389;SDS011;2209;48.982;8.406;2022-11-14T12:59:10;11.10;;;9.53;;
4389;SDS011;2209;48.982;8.406;2022-11-14T13:02:04;10.77;;;9.30;;
4389;SDS011;2209;48.982;8.406;2022-11-14T13:04:39;10.30;;;8.27;;
4389;SDS011;2209;48.982;8.406;2022-11-14T13:07:24;11.87;;;8.50;;
4389;SDS011;2209;48.982;8.406;2022-11-14T13:10:00;12.03;;;8.97;;
4389;SDS011;2209;48.982;8.406;2022-11-14T13:12:34;11.37;;;7.80;;
4389;SDS011;2209;48.982;8.406;2022-11-14T13:18:18;9.50;;;8.50;;
4389;SDS011;2209;48.982;8.406;2022-11-14T13:21:00;10.93;;;8.03;;
4389;SDS011;2209;48.982;8.406;2022-11-14T13:23:57;10.57;;;7.63;;
4389;SDS011;2209;48.982;8.406;2022-11-14T13:26:36;9.67;;;8.60;;
4389;SDS011;2209;48.982;8.406;2022-11-14T13:28:59;10.77;;;8.07;;
4389;SDS011;2209;48.982;8.406;2022-11-14T13:31:22;9.30;;;8.20;;
4389;SDS011;2209;48.982;8.406;2022-11-14T13:33:46;9.43;;;8.50;;
4389;SDS011;2209;48.982;8.406;2022-11-14T13:36:10;12.13;;;8.10;;
4389;SDS011;2209;48.982;8.406;2022-11-14T13:38:55;9.00;;;8.10;;
4389;SDS011;2209;48.982;8.406;2022-11-14T13:44:51;9.30;;;7.97;;
4389;SDS011;2209;48.982;8.406;2022-11-14T13:47:54;12.00;;;8.57;;
4389;SDS011;2209;48.982;8.406;2022-11-14T13:50:32;10.10;;;8.60;;
4389;SDS011;2209;48.982;8.406;2022-11-14T13:52:56;11.67;;;8.70;;
4389;SDS011;2209;48.982;8.406;2022-11-14T13:55:21;12.00;;;8.33;;
4389;SDS011;2209;48.982;8.406;2022-11-14T13:57:52;9.70;;;8.63;;
4389;SDS011;2209;48.982;8.406;2022-11-14T14:00:26;10.07;;;8.97;;
4389;SDS011;2209;48.982;8.406;2022-11-14T14:02:59;10.43;;;8.03;;
4389;SDS011;2209;48.982;8.406;2022-11-14T14:05:42;9.97;;;8.97;;
4389;SDS011;2209;48.982;8.406;2022-11-14T14:08:32;12.53;;;9.07;;
4389;SDS011;2209;48.982;8.406;2022-11-14T14:11:11;9.87;;;8.83;;
4389;SDS011;2209;48.982;8.406;2022-11-14T14:13:53;11.40;;;8.60;;
4389;SDS011;2209;48.982;8.406;2022-11-14T14:16:27;9.40;;;8.20;;
4389;SDS011;2209;48.982;8.406;2022-11-14T14:19:00;11.97;;;8.20;;
4389;SDS011;2209;48.982;8.406;2022-11-14T14:21:34;10.83;;;8.03;;
4389;SDS011;2209;48.982;8.406;2022-11-14T14:24:04;11.43;;;7.37;;
4389;SDS011;2209;48.982;8.406;2022-11-14T14:26:39;8.97;;;8.10;;
4389;SDS011;2209;48.982;8.406;2022-11-14T14:29:18;10.50;;;7.97;;
4389;SDS011;2209;48.982;8.406;2022-11-14T14:31:45;8.80;;;8.00;;
4389;SDS011;2209;48.982;8.406;2022-11-14T14:34:20;9.43;;;7.57;;
4389;SDS011;2209;48.982;8.406;2022-11-14T14:36:47;12.10;;;7.90;;
4389;SDS011;2209;48.982;8.406;2022-11-14T14:39:14;8.93;;;7.37;;
4389;SDS011;2209;48.982;8.406;2022-11-14T14:41:38;7.60;;;6.90;;
4389;SDS011;2209;48.982;8.406;2022-11-14T14:44:01;8.37;;;7.23;;
4389;SDS011;2209;48.982;8.406;2022-11-14T14:46:25;8.17;;;6.90;;
4389;SDS011;2209;48.982;8.406;2022-11-14T14:48:50;9.03;;;7.37;;
4389;SDS011;2209;48.982;8.406;2022-11-14T14:51:13;10.53;;;7.80;;
4389;SDS011;2209;48.982;8.406;2022-11-14T14:53:35;7.77;;;6.97;;
4389;SDS011;2209;48.982;8.406;2022-11-14T14:55:57;7.53;;;6.83;;
4389;SDS011;2209;48.982;8.406;2022-11-14T14:58:24;8.83;;;6.73;;
4389;SDS011;2209;48.982;8.406;2022-11-14T15:00:49;7.53;;;6.83;;
4389;SDS011;2209;48.982;8.406;2022-11-14T15:03:13;7.93;;;7.13;;
4389;SDS011;2209;48.982;8.406;2022-11-14T15:05:36;7.17;;;6.57;;
4389;SDS011;2209;48.982;8.406;2022-11-14T15:07:59;7.47;;;6.77;;
4389;SDS011;2209;48.982;8.406;2022-11-14T15:10:22;8.17;;;7.20;;